Date,TemperatureHighF,TemperatureAvgF,TemperatureLowF,DewpointHighF,DewpointAvgF,DewpointLowF,HumidityHigh,HumidityAvg,HumidityLow,PressureMaxIn,PressureMinIn,WindSpeedMaxMPH,WindSpeedAvgMPH,GustSpeedMaxMPH,PrecipitationSumIn
2012-1-1,60,44,32,52,37,24,97,79,48,30.14,29.84,31,3,31,0.04
2012-1-2,42,32,22,26,15,10,68,50,38,30.04,29.94,29,9,29,0.00
2012-1-3,30,22,20,13,10,6,67,57,40,30.25,30.02,34,9,34,0.00
2012-1-4,42,31,18,27,14,5,68,50,31,30.27,29.99,29,4,29,0.00
2012-1-5,53,42,36,28,25,21,62,51,38,30.09,29.96,24,6,24,0.00
2012-1-6,70,52,36,33,28,23,64,42,23,30.03,29.91,17,5,17,0.00
2012-1-7,63,54,45,49,41,23,73,60,41,30.11,29.89,27,5,27,0.00
2012-1-8,63,44,34,32,27,22,71,52,25,30.28,30.10,14,2,14,0.00
2012-1-9,40,37,35,35,32,26,97,83,61,30.27,30.03,7,1,7,0.17
2012-1-10,59,43,32,35,31,28,97,64,36,30.10,30.00,21,4,21,0.00
2012-1-11,40,36,31,39,35,28,97,94,82,30.02,29.55,10,0,10,0.61
2012-1-12,60,47,35,52,43,31,97,86,62,29.59,29.41,34,5,34,0.14
2012-1-13,39,29,26,31,17,12,72,61,54,30.00,29.49,34,11,34,0.02
2012-1-14,43,31,26,23,18,15,80,60,37,30.13,29.97,29,7,29,0.00
2012-1-15,42,30,23,24,19,15,85,64,39,30.49,30.09,16,3,16,0.00
2012-1-16,48,32,19,34,23,15,86,71,46,30.51,30.19,14,2,14,0.00
2012-1-17,59,51,43,53,41,30,97,68,55,30.19,29.82,23,6,23,0.13
2012-1-18,55,36,25,43,22,14,68,58,43,30.16,29.86,38,7,38,0.01
2012-1-19,48,31,18,24,19,14,84,62,37,30.19,29.98,11,2,11,0.00
2012-1-20,50,41,34,32,27,22,94,59,45,30.16,29.98,21,3,21,0.15
2012-1-21,46,38,33,45,38,32,97,97,94,30.18,29.87,6,1,6,0.25
2012-1-22,38,34,31,37,33,31,97,95,87,30.36,30.18,4,1,4,0.04
2012-1-23,39,36,34,38,35,33,97,97,97,30.27,29.94,4,1,4,0.19
2012-1-24,65,50,36,48,37,32,97,65,34,30.25,29.97,24,5,24,0.01
2012-1-25,60,46,33,39,33,26,88,63,37,30.33,30.18,12,2,12,0.00
2012-1-26,64,51,38,58,44,34,97,79,56,30.18,29.67,7,1,7,0.02
2012-1-27,62,52,40,61,44,30,97,73,57,30.03,29.54,37,8,37,0.15
2012-1-28,57,42,30,38,30,17,91,64,42,30.23,29.98,29,5,29,0.00
2012-1-29,50,40,29,19,16,12,57,39,23,30.31,30.12,26,7,26,0.00
2012-1-30,59,44,30,28,22,13,55,43,29,30.39,30.19,18,5,18,0.00
2012-1-31,71,54,40,33,28,24,56,39,21,30.30,30.15,16,4,16,0.00
2012-2-1,68,57,49,53,42,27,97,61,37,30.18,30.03,30,5,30,0.12
2012-2-2,62,54,44,52,41,32,97,67,35,30.34,29.98,24,6,24,0.05
2012-2-3,62,44,30,34,30,26,86,59,30,30.49,30.31,8,2,10,0.00
2012-2-4,50,42,36,43,36,28,97,81,57,30.31,30.06,3,1,3,0.22
2012-2-5,40,37,32,39,36,32,97,97,97,30.24,30.01,4,1,4,0.12
2012-2-6,50,39,30,41,35,30,97,86,68,30.27,30.09,18,2,18,0.00
2012-2-7,66,47,35,34,30,26,76,56,23,30.20,30.08,16,4,18,0.00
2012-2-8,40,36,30,37,30,26,90,81,68,30.22,30.10,17,3,23,0.05
2012-2-9,51,37,30,28,24,21,75,60,35,30.29,30.16,22,4,22,0.01
2012-2-10,46,36,25,35,28,21,91,71,56,30.20,29.86,6,1,6,0.01
2012-2-11,40,30,16,35,19,1,91,64,47,30.07,29.77,32,10,32,0.02
2012-2-12,39,25,16,15,9,2,60,51,35,30.17,30.05,28,10,28,0.00
2012-2-13,52,36,26,22,17,14,65,48,26,30.22,30.06,24,5,24,0.00
2012-2-14,51,41,34,40,30,20,94,66,44,30.07,29.94,16,2,16,0.01
2012-2-15,64,49,38,38,34,30,79,58,35,30.27,30.04,26,4,26,0.01
2012-2-16,53,46,42,51,42,31,97,85,51,30.24,30.01,17,2,17,0.22
2012-2-17,57,49,37,44,33,27,75,56,36,30.14,30.01,27,6,27,0.01
2012-2-18,66,48,32,36,29,22,83,51,25,30.13,29.94,17,3,17,0.00
2012-2-19,48,37,31,33,31,28,97,80,45,30.03,29.82,4,1,4,0.00
2012-2-20,57,38,26,33,28,24,97,74,33,30.31,29.98,9,1,9,0.26
2012-2-21,57,38,24,37,30,22,95,74,44,30.30,29.91,14,2,14,0.00
2012-2-22,62,49,39,45,39,31,90,70,33,29.92,29.57,31,8,31,0.53
2012-2-23,74,55,41,51,47,39,97,75,41,29.66,29.54,21,3,21,0.02
2012-2-24,75,55,39,62,45,21,97,72,43,29.86,29.43,37,9,37,0.13
2012-2-25,42,36,31,25,17,12,63,47,37,30.32,29.83,34,10,34,0.00
2012-2-26,56,38,26,23,19,15,68,48,25,30.46,30.32,14,3,14,0.00
2012-2-27,68,48,29,38,30,22,81,54,29,30.43,30.22,17,3,17,0.00
2012-2-28,71,54,37,34,25,6,60,35,8,30.44,30.25,16,3,16,0.00
2012-2-29,69,54,43,60,49,28,97,85,55,30.26,29.73,17,2,17,0.91
2012-3-1,72,61,47,60,38,25,97,49,19,29.92,29.72,31,7,31,0.25
2012-3-2,51,45,40,44,40,31,97,83,54,30.03,29.71,7,2,7,0.66
2012-3-3,59,49,44,52,34,17,97,62,23,29.79,29.60,27,6,27,0.21
2012-3-4,47,39,35,26,22,18,65,50,35,29.95,29.70,30,7,30,0.00
2012-3-5,43,34,31,37,26,20,97,71,51,30.45,29.86,30,5,30,0.19
2012-3-6,57,40,24,28,24,20,87,56,29,30.62,30.44,12,2,12,0.00
2012-3-7,71,49,29,46,36,24,85,61,35,30.56,30.38,22,4,22,0.00
2012-3-8,70,59,47,56,49,41,91,72,48,30.39,30.09,27,8,27,0.07
2012-3-9,58,49,40,55,32,20,92,53,30,30.36,30.07,24,9,24,0.02
2012-3-10,61,44,31,23,20,16,62,41,20,30.50,30.35,17,3,17,0.00
2012-3-11,71,48,30,36,28,22,71,48,25,30.55,30.36,8,2,9,0.00
2012-3-12,75,57,39,56,42,30,95,60,39,30.40,30.17,14,3,14,0.01
2012-3-13,82,67,55,57,52,46,93,62,32,30.19,30.05,22,5,22,0.00
2012-3-14,86,67,51,57,47,36,94,55,18,30.26,30.14,12,2,12,0.00
2012-3-15,74,61,52,54,50,43,87,68,45,30.30,30.17,26,4,26,0.04
2012-3-16,78,63,52,58,54,51,97,75,48,30.24,30.12,15,2,15,0.00
2012-3-17,79,64,53,60,55,52,97,74,44,30.29,30.19,7,1,7,0.00
2012-3-18,70,62,55,65,60,54,97,91,73,30.34,30.21,8,1,8,0.02
2012-3-19,82,64,54,69,58,53,97,84,51,30.29,30.10,8,2,8,0.24
2012-3-20,87,64,54,66,59,53,97,86,41,30.29,30.14,12,2,12,0.22
2012-3-21,75,61,51,65,58,50,97,89,65,30.35,30.19,8,1,8,0.00
2012-3-22,86,68,54,68,59,53,97,76,43,30.28,30.11,7,2,7,0.00
2012-3-23,87,70,57,65,58,54,97,69,35,30.17,29.96,12,3,13,0.04
2012-3-24,72,60,54,63,58,53,97,93,64,30.00,29.82,20,2,20,1.04
2012-3-25,59,55,51,58,54,50,97,97,91,29.89,29.77,6,1,6,0.31
2012-3-26,72,60,49,58,42,21,97,56,19,30.19,29.86,23,7,23,0.00
2012-3-27,69,49,32,34,27,20,74,45,17,30.35,30.19,8,2,8,0.00
2012-3-28,87,64,41,57,45,30,83,54,26,30.22,29.79,34,5,34,0.01
2012-3-29,79,67,55,56,41,33,61,39,20,30.01,29.85,27,8,27,0.01
2012-3-30,78,60,46,52,44,37,74,57,39,30.10,29.85,8,2,8,0.00
2012-3-31,78,66,57,55,51,45,77,59,40,29.88,29.73,17,4,18,0.00
2012-4-1,80,62,44,55,46,41,93,59,27,29.92,29.68,27,4,27,0.01
2012-4-2,82,70,54,58,38,12,72,40,8,29.98,29.62,20,4,20,0.00
2012-4-3,85,62,41,60,44,27,75,54,32,30.06,29.83,24,3,24,0.00
2012-4-4,86,70,61,62,56,51,81,62,38,29.87,29.65,23,5,23,0.19
2012-4-5,66,51,45,57,48,44,97,88,64,29.92,29.72,8,1,8,0.15
2012-4-6,73,53,41,44,35,16,97,60,12,30.14,29.89,10,2,10,0.00
2012-4-7,73,55,35,28,20,10,68,32,10,30.29,30.10,17,4,17,0.00
2012-4-8,76,60,43,35,29,20,54,32,20,30.17,29.93,24,5,24,0.00
2012-4-9,72,61,45,35,27,20,47,28,19,30.05,29.81,31,6,31,0.00
2012-4-10,70,59,50,34,21,6,42,25,10,29.92,29.76,39,7,39,0.00
2012-4-11,50,42,38,26,24,21,59,51,35,30.02,29.90,19,6,19,0.00
2012-4-12,66,49,36,32,29,27,70,48,25,30.25,30.10,12,3,12,0.00
2012-4-13,73,52,38,37,33,29,80,52,22,30.30,30.19,8,2,8,0.00
2012-4-14,81,59,40,47,40,32,78,53,29,30.30,30.11,13,2,13,0.00
2012-4-15,91,71,58,58,50,45,66,49,28,30.18,30.03,14,4,14,0.00
2012-4-16,91,81,69,62,58,53,77,48,32,30.13,30.00,15,5,15,0.00
2012-4-17,79,69,60,60,50,-6,66,51,30,30.25,30.10,15,3,15,0.00
2012-4-18,60,52,50,53,50,46,97,94,60,30.27,30.13,4,0,4,0.74
2012-4-19,65,55,48,59,52,48,97,90,65,30.14,30.05,5,0,5,0.01
2012-4-20,78,58,42,60,51,41,97,82,50,30.06,29.86,5,1,5,0.00
2012-4-21,81,61,53,65,56,52,97,87,41,29.88,29.72,21,2,21,0.18
2012-4-22,54,50,44,53,49,39,97,96,81,29.81,29.56,14,2,14,0.78
2012-4-23,50,44,37,39,33,21,91,66,33,29.64,29.48,22,9,22,0.05
2012-4-24,65,51,39,31,23,13,65,36,15,29.81,29.61,21,6,21,0.00
2012-4-25,70,54,42,53,41,28,97,64,33,29.94,29.80,11,3,11,0.01
2012-4-26,70,59,52,65,57,51,97,93,73,29.91,29.73,18,2,18,0.87
2012-4-27,74,61,51,58,42,32,85,53,27,30.17,29.85,21,5,21,0.01
2012-4-28,63,50,43,51,43,35,97,79,51,30.36,30.11,5,1,5,0.52
2012-4-29,79,58,45,64,53,44,97,85,56,30.25,30.11,5,1,5,0.02
2012-4-30,67,61,58,63,60,57,97,97,96,30.27,30.12,3,0,3,0.00
2012-5-1,86,69,60,72,63,60,97,82,43,30.13,30.05,21,2,21,0.18
2012-5-2,92,75,62,70,64,61,97,73,38,30.15,30.04,18,2,18,0.00
2012-5-3,98,75,62,72,65,55,97,73,38,30.19,30.05,20,2,20,0.02
2012-5-4,88,71,58,68,62,55,97,74,50,30.12,29.96,12,2,12,0.00
2012-5-5,77,67,63,72,65,62,97,94,75,30.02,29.91,7,1,7,0.39
2012-5-6,82,68,59,71,64,58,97,90,62,30.11,29.99,5,0,5,0.32
2012-5-7,68,64,62,67,63,61,97,97,88,30.10,30.00,5,1,5,0.02
2012-5-8,73,66,62,71,64,61,97,96,84,30.03,29.86,6,1,6,0.52
2012-5-9,68,61,53,64,59,52,97,93,72,29.90,29.74,8,1,8,0.15
2012-5-10,70,59,51,52,44,39,89,60,38,30.04,29.77,17,5,17,0.01
2012-5-11,78,58,42,50,42,35,89,59,26,30.25,30.04,8,2,8,0.00
2012-5-12,81,61,43,57,49,40,92,68,41,30.37,30.23,4,1,4,0.00
2012-5-13,78,64,54,63,58,53,97,81,55,30.27,30.14,5,1,5,0.07
2012-5-14,68,62,59,67,61,58,97,97,97,30.15,29.98,3,0,3,0.98
2012-5-15,80,67,60,72,64,60,97,92,65,30.04,29.96,8,1,8,0.01
2012-5-16,87,68,56,73,58,54,97,75,36,30.04,29.92,10,1,10,0.00
2012-5-17,85,67,53,69,60,52,97,79,51,30.14,30.00,5,1,5,0.01
2012-5-18,80,66,55,62,57,51,97,76,49,30.20,30.11,7,1,7,0.00
2012-5-19,84,64,50,59,53,48,97,70,38,30.23,30.12,5,1,5,0.00
2012-5-20,89,68,52,64,57,51,97,72,34,30.23,30.10,5,1,5,0.00
2012-5-21,90,69,57,67,61,56,97,80,43,30.12,29.91,11,1,11,0.07
2012-5-22,85,67,60,73,64,59,97,90,58,29.99,29.86,8,1,8,0.05
2012-5-23,80,66,60,70,64,60,97,94,69,30.01,29.90,4,0,4,0.21
2012-5-24,83,67,60,71,65,59,97,94,64,30.12,30.00,4,0,4,0.06
2012-5-25,94,75,63,75,67,62,97,80,43,30.20,30.11,4,1,4,0.00
2012-5-26,95,76,62,74,68,61,97,77,43,30.24,30.14,5,1,5,0.00
2012-5-27,93,76,64,73,68,63,97,78,44,30.22,30.11,4,1,4,0.00
2012-5-28,94,75,64,74,68,63,97,81,49,30.18,30.01,7,1,7,0.00
2012-5-29,92,74,66,72,68,65,97,83,47,30.06,29.83,24,2,24,0.48
2012-5-30,90,74,64,75,63,51,97,72,29,29.93,29.80,14,2,14,0.00
2012-5-31,91,74,63,65,60,50,97,67,29,29.96,29.86,19,2,19,0.33
2012-6-1,84,67,62,74,63,50,97,88,63,29.94,29.71,25,3,25,0.13
2012-6-2,76,62,53,52,49,44,85,64,36,29.97,29.84,17,4,17,0.00
2012-6-3,81,64,50,61,53,48,96,70,44,29.97,29.83,15,3,15,0.06
2012-6-4,82,69,60,59,54,48,96,62,33,29.87,29.72,17,3,17,0.04
2012-6-5,80,62,53,60,56,52,97,81,44,29.99,29.82,5,1,5,0.02
2012-6-6,71,60,56,63,57,55,97,90,66,30.09,29.98,4,0,4,0.38
2012-6-7,85,64,52,66,56,51,97,80,35,30.13,30.04,6,1,6,0.02
2012-6-8,87,67,52,67,56,51,97,72,36,30.14,30.03,9,1,9,0.00
2012-6-9,93,71,54,66,58,48,97,67,30,30.14,30.04,9,1,9,0.00
2012-6-10,93,73,59,71,62,55,97,71,36,30.20,30.10,7,1,7,0.00
2012-6-11,78,68,61,73,66,55,97,92,75,30.19,30.06,3,0,3,0.61
2012-6-12,91,74,67,79,70,66,97,90,54,30.06,29.89,8,1,8,0.58
2012-6-13,88,74,60,70,65,58,97,77,44,30.13,29.96,6,1,9,0.01
2012-6-14,88,68,52,65,58,50,97,74,41,30.25,30.13,5,1,5,0.00
2012-6-15,85,70,60,66,62,60,97,78,47,30.32,30.23,4,1,4,0.00
2012-6-16,84,69,55,63,59,54,97,74,43,30.36,30.21,5,1,5,0.00
2012-6-17,83,68,55,66,61,54,97,79,54,30.25,30.07,5,1,5,0.00
2012-6-18,82,71,64,76,68,63,97,92,70,30.14,30.06,5,0,5,0.37
2012-6-19,96,77,65,79,69,64,97,81,44,30.22,30.14,7,1,7,0.00
2012-6-20,98,80,66,80,71,65,97,79,42,30.25,30.13,4,0,4,0.00
2012-6-21,98,77,66,80,72,66,97,85,40,30.14,29.96,10,1,10,0.26
2012-6-22,94,76,69,76,71,68,97,86,50,30.03,29.89,8,1,8,0.31
2012-6-23,93,76,64,78,66,58,97,75,38,30.10,29.98,5,1,5,0.00
2012-6-24,95,75,60,72,65,60,97,74,42,30.11,29.97,8,1,8,0.00
2012-6-25,91,76,64,75,64,52,97,69,45,29.99,29.80,16,2,16,0.00
2012-6-26,88,69,53,56,51,47,80,54,28,30.01,29.88,10,2,10,0.00
2012-6-27,90,70,52,62,54,48,92,61,31,30.09,29.98,9,2,9,0.00
2012-6-28,100,79,58,70,62,54,89,59,29,30.08,29.90,14,2,14,0.00
2012-6-29,103,90,71,78,69,61,79,51,39,30.08,29.82,35,5,35,0.01
2012-6-30,105,82,65,78,69,62,94,66,36,29.98,29.87,14,1,14,0.00
2012-7-1,98,85,71,78,69,62,83,61,39,30.08,29.93,14,2,14,0.00
2012-7-2,96,80,66,72,66,62,92,65,42,30.10,30.01,19,3,19,0.02
2012-7-3,98,79,67,78,69,65,97,75,40,30.10,29.98,11,1,11,0.00
2012-7-4,98,80,68,77,71,67,97,75,43,30.07,29.95,8,1,8,0.00
2012-7-5,100,82,70,78,70,66,97,72,38,30.03,29.94,12,3,12,0.00
2012-7-6,99,82,69,78,71,66,95,72,45,30.08,29.99,8,1,8,0.00
2012-7-7,103,84,69,80,73,68,97,72,35,30.09,29.96,9,1,9,0.00
2012-7-8,104,86,73,76,72,69,94,65,39,30.04,29.88,12,2,12,0.00
2012-7-9,93,77,70,76,72,69,97,86,54,30.07,29.95,9,1,9,0.00
2012-7-10,89,74,67,77,70,66,97,89,57,30.13,30.03,4,1,4,0.00
2012-7-11,85,74,67,76,68,63,97,83,59,30.22,30.11,5,0,5,0.00
2012-7-12,82,71,63,69,65,61,97,83,58,30.26,30.20,3,0,3,0.00
2012-7-13,80,71,65,73,67,64,97,89,65,30.29,30.22,4,0,4,0.00
2012-7-14,90,74,66,76,70,65,97,88,62,30.28,30.16,12,1,12,0.00
2012-7-15,96,78,68,86,72,67,97,84,50,30.26,30.10,8,1,8,0.00
2012-7-16,96,77,69,80,72,68,97,88,49,30.16,29.99,11,2,11,0.00
2012-7-17,99,81,69,80,73,68,97,78,38,30.08,29.94,7,1,7,0.00
2012-7-18,98,79,69,80,74,68,97,85,47,30.06,29.95,14,1,14,0.00
2012-7-19,96,77,68,84,72,67,97,88,51,30.09,29.96,11,1,11,0.00
2012-7-20,80,73,69,78,72,68,97,95,80,30.04,29.96,5,1,5,0.00
2012-7-21,90,77,68,82,73,68,97,88,63,30.17,29.99,5,0,5,0.00
2012-7-22,90,76,69,78,73,68,97,91,66,30.25,30.16,5,0,5,0.07
2012-7-23,92,77,70,77,73,69,97,88,54,30.22,30.07,10,2,10,0.04
2012-7-24,89,79,72,77,72,66,97,80,64,30.09,29.90,22,5,22,0.06
2012-7-25,95,79,68,78,71,65,97,79,54,30.06,29.94,11,1,11,0.00
2012-7-26,100,85,73,76,73,69,97,71,42,29.97,29.82,17,4,17,0.00
2012-7-27,93,79,69,76,71,66,97,78,51,30.04,29.90,26,2,26,0.50
2012-7-28,93,77,66,73,67,64,97,74,41,30.08,29.98,14,2,14,0.00
2012-7-29,92,76,66,72,67,64,97,76,45,30.12,30.02,8,1,8,0.00
2012-7-30,93,75,65,74,68,64,97,82,51,30.14,30.03,5,1,5,0.00
2012-7-31,89,75,64,74,69,64,97,83,58,30.09,29.94,8,1,8,0.00
2012-8-1,91,72,63,76,68,62,97,88,56,30.05,29.90,18,1,18,0.32
2012-8-2,97,76,63,78,70,62,97,84,44,30.02,29.92,4,1,4,0.00
2012-8-3,92,77,67,79,73,66,97,87,59,30.14,30.00,5,1,5,0.00
2012-8-4,89,76,68,79,73,68,97,91,66,30.23,30.13,8,1,8,0.04
2012-8-5,93,76,69,78,73,68,97,91,57,30.25,30.13,8,1,8,0.79
2012-8-6,83,74,70,80,72,69,97,93,77,30.19,30.09,5,1,5,0.00
2012-8-7,92,76,67,81,72,66,97,87,56,30.11,30.01,4,0,4,0.00
2012-8-8,96,79,69,79,70,63,97,77,39,30.09,29.99,9,1,9,0.00
2012-8-9,96,78,67,78,72,66,97,83,47,30.06,29.90,13,1,13,0.05
2012-8-10,90,75,68,75,70,67,97,85,55,29.93,29.81,11,2,11,0.04
2012-8-11,88,74,66,70,65,58,97,76,48,30.03,29.88,8,1,8,0.01
2012-8-12,87,71,58,65,60,56,97,70,42,30.12,30.01,6,1,8,0.00
2012-8-13,90,71,58,71,64,57,97,80,49,30.14,30.00,5,1,5,0.00
2012-8-14,91,74,64,75,69,64,97,86,50,30.04,29.90,6,1,6,0.20
2012-8-15,81,71,64,72,68,64,97,89,67,30.06,29.95,8,1,8,0.00
2012-8-16,91,73,60,71,64,59,97,78,41,30.13,29.98,6,1,6,0.00
2012-8-17,89,73,62,72,66,61,97,79,53,30.05,29.90,12,1,12,0.00
2012-8-18,89,74,64,66,64,60,95,74,41,30.03,29.90,5,1,7,0.00
2012-8-19,73,65,62,71,64,61,97,96,86,30.03,29.95,6,0,6,2.10
2012-8-20,86,69,61,71,65,60,97,89,57,30.06,29.91,5,1,5,0.00
2012-8-21,89,68,56,69,61,55,97,82,38,30.16,30.05,7,1,7,0.00
2012-8-22,87,71,60,70,65,60,97,84,51,30.22,30.13,4,0,4,0.00
2012-8-23,92,73,62,75,66,61,97,81,44,30.25,30.15,4,1,4,0.00
2012-8-24,66,64,63,66,64,62,97,97,97,30.22,30.20,2,0,2,0.00
2012-8-25,75,66,59,69,63,58,97,88,66,30.27,30.19,6,1,6,0.00
2012-8-26,88,71,64,71,66,62,97,87,56,30.26,30.17,4,1,4,0.02
2012-8-27,94,74,61,76,67,61,97,82,47,30.25,30.07,4,1,4,0.00
2012-8-28,91,75,65,74,69,64,97,81,54,30.09,29.98,7,1,7,0.00
2012-8-29,94,74,60,72,65,60,97,78,40,30.11,30.00,4,1,4,0.00
2012-8-30,93,74,62,75,68,61,97,83,51,30.20,30.09,5,1,5,0.00
2012-8-31,99,79,67,77,71,66,97,80,43,30.27,30.13,14,2,14,0.00
2012-9-1,95,78,70,77,73,69,97,85,53,30.23,30.10,14,1,14,0.30
2012-9-2,94,75,67,81,72,66,97,92,62,30.15,30.00,8,0,8,0.22
2012-9-3,75,72,70,74,71,69,97,97,97,30.12,30.05,3,0,3,0.00
2012-9-4,84,75,71,79,73,70,97,93,75,30.08,29.96,7,0,7,0.00
2012-9-5,92,75,70,81,73,69,97,92,61,29.99,29.88,6,1,6,0.69
2012-9-6,92,74,66,82,71,66,97,91,58,30.05,29.92,4,0,4,0.01
2012-9-7,95,75,63,78,69,62,97,85,47,30.08,29.93,4,0,4,0.00
2012-9-8,86,70,59,78,65,54,97,85,59,29.99,29.76,18,3,18,0.08
2012-9-9,80,63,53,60,55,51,97,77,40,30.09,29.95,14,2,14,0.00
2012-9-10,82,63,51,59,52,47,97,73,34,30.26,30.08,11,2,11,0.00
2012-9-11,84,61,46,61,53,45,97,78,41,30.39,30.26,4,1,4,0.00
2012-9-12,88,65,51,65,58,50,97,81,40,30.42,30.31,4,1,4,0.00
2012-9-13,87,65,52,64,56,51,97,79,36,30.44,30.30,4,1,4,0.00
2012-9-14,90,65,52,65,58,51,97,80,41,30.36,30.19,4,0,4,0.00
2012-9-15,84,68,59,67,63,58,97,86,54,30.29,30.15,4,1,4,0.00
2012-9-16,73,62,57,63,59,56,97,90,68,30.23,30.13,4,0,4,0.00
2012-9-17,67,63,59,66,62,59,97,97,97,30.17,29.97,4,0,4,0.00
2012-9-18,71,67,65,70,66,64,97,97,97,29.97,29.71,14,1,14,0.00
2012-9-19,76,61,52,58,54,50,97,79,42,30.21,29.94,9,1,12,0.00
2012-9-20,79,63,56,65,59,55,97,87,59,30.22,30.09,4,0,4,0.00
2012-9-21,87,66,54,73,60,53,97,84,47,30.14,30.01,9,1,9,0.00
2012-9-22,83,69,59,65,60,46,97,74,48,30.07,29.91,18,4,18,0.00
2012-9-23,80,59,47,49,42,35,76,54,26,30.24,30.06,12,2,12,0.15
2012-9-24,77,54,41,50,44,40,97,73,32,30.32,30.17,11,1,11,0.00
2012-9-25,77,56,43,59,51,42,97,85,45,30.27,30.14,4,0,4,0.04
2012-9-26,87,66,51,70,60,50,97,85,50,30.25,30.15,11,1,11,0.00
2012-9-27,90,70,60,73,64,59,97,83,47,30.26,30.13,8,1,8,0.00
2012-9-28,76,68,63,69,64,61,97,90,74,30.17,30.04,13,1,13,0.13
2012-9-29,74,64,56,65,61,50,97,90,69,30.07,29.94,7,1,10,0.00
2012-9-30,77,59,46,59,51,45,97,79,40,30.00,29.87,8,1,8,0.00
2012-10-1,60,56,51,58,55,50,97,97,92,30.01,29.94,2,0,2,0.14
2012-10-2,66,62,58,65,61,57,97,97,97,30.03,29.91,3,0,3,0.54
2012-10-3,87,70,61,77,67,60,97,92,60,30.21,30.02,3,0,3,0.00
2012-10-4,82,68,57,66,61,55,97,80,44,30.27,30.19,11,2,11,0.00
2012-10-5,84,63,52,66,57,51,97,83,43,30.27,30.06,8,1,8,0.00
2012-10-6,75,61,52,62,54,41,97,78,54,30.11,29.96,22,3,22,0.00
2012-10-7,53,48,40,49,46,40,97,92,66,30.23,30.07,7,0,7,0.28
2012-10-8,48,43,39,48,42,38,97,97,94,30.32,30.20,3,0,3,0.09
2012-10-9,65,50,43,53,48,43,97,91,64,30.24,30.11,4,0,4,0.00
2012-10-10,67,55,45,53,48,40,97,78,56,30.19,30.01,22,4,22,0.00
2012-10-11,53,47,40,41,36,34,80,67,59,30.31,30.18,14,4,14,0.00
2012-10-12,75,57,43,47,43,39,97,64,32,30.42,30.21,12,3,12,0.00
2012-10-13,69,51,39,46,42,38,96,76,42,30.52,30.34,7,1,7,0.00
2012-10-14,79,57,43,60,51,42,97,84,51,30.34,30.03,5,0,5,0.00
2012-10-15,77,63,53,65,54,40,97,77,44,30.03,29.78,24,4,24,0.14
2012-10-16,75,57,47,46,41,36,75,56,29,30.01,29.89,20,4,20,0.00
2012-10-17,76,54,39,52,44,37,97,73,40,30.06,29.92,5,1,5,0.00
2012-10-18,68,56,44,60,53,44,97,90,72,29.96,29.81,6,1,6,0.00
2012-10-19,76,60,47,58,45,32,97,63,21,29.83,29.68,14,2,14,0.00
2012-10-20,67,54,46,43,40,37,77,60,39,30.03,29.77,16,3,16,0.00
2012-10-21,72,54,43,44,41,38,88,64,30,30.22,30.03,11,2,11,0.00
2012-10-22,84,57,39,56,46,38,97,72,37,30.30,30.15,4,1,4,0.00
2012-10-23,88,64,47,61,52,46,97,71,32,30.24,30.09,9,1,9,0.00
2012-10-24,90,68,55,61,53,48,92,64,26,30.24,30.11,8,1,8,0.00
2012-10-25,86,65,51,59,52,49,97,67,32,30.23,30.13,5,1,5,0.00
2012-10-26,78,62,53,63,57,52,97,84,59,30.22,30.05,5,1,5,0.00
2012-10-27,68,61,55,63,57,54,97,87,69,30.08,29.88,6,1,6,0.02
2012-10-28,60,55,46,54,49,42,93,80,67,29.90,29.72,14,4,14,0.04
2012-10-29,46,41,39,42,36,32,93,82,70,29.75,29.25,40,11,40,0.37
2012-10-30,42,40,35,33,31,29,82,71,65,29.58,29.21,46,16,46,0.00
2012-10-31,48,43,41,35,34,32,72,69,61,29.78,29.55,34,9,34,0.00
2012-11-1,47,44,42,36,34,28,73,67,49,29.87,29.74,27,8,27,0.00
2012-11-2,60,49,44,33,28,25,57,45,30,30.02,29.84,24,6,24,0.00
2012-11-3,61,47,40,41,32,29,97,57,34,30.14,30.02,22,5,22,0.07
2012-11-4,60,45,38,49,39,27,97,82,39,30.13,29.99,14,2,14,0.08
2012-11-5,61,43,32,34,30,27,80,62,33,30.16,30.04,12,2,12,0.00
2012-11-6,42,35,27,33,29,25,93,81,68,30.21,29.99,4,0,4,0.00
2012-11-7,52,39,29,37,32,27,97,78,53,30.00,29.87,4,1,4,0.00
2012-11-8,60,46,36,31,25,19,79,46,22,30.20,29.99,19,6,19,0.00
2012-11-9,71,49,35,37,31,26,77,53,23,30.28,30.18,14,2,14,0.00
2012-11-10,78,53,36,43,34,29,78,53,23,30.39,30.26,4,1,4,0.00
2012-11-11,76,56,38,47,39,32,82,56,28,30.49,30.36,8,1,8,0.00
2012-11-12,65,59,49,60,56,45,97,88,72,30.41,30.17,17,3,17,0.79
2012-11-13,57,44,31,45,32,25,89,65,37,30.47,30.24,25,4,25,0.02
2012-11-14,50,36,26,32,28,24,94,73,48,30.54,30.40,6,1,6,0.00
2012-11-15,51,38,27,35,30,26,97,75,50,30.42,30.28,5,1,5,0.00
2012-11-16,63,40,27,39,31,26,97,74,32,30.45,30.30,6,1,6,0.00
2012-11-17,62,42,29,35,30,27,96,67,32,30.57,30.44,5,1,5,0.00
2012-11-18,59,44,33,39,33,27,79,67,47,30.58,30.44,5,1,5,0.00
2012-11-19,59,46,37,44,38,36,95,76,55,30.47,30.25,6,1,6,0.00
2012-11-20,57,41,34,45,38,33,97,88,65,30.26,30.09,4,0,4,0.00
2012-11-21,66,43,30,43,35,29,97,77,38,30.25,30.15,6,1,6,0.00
2012-11-22,69,44,30,42,32,27,91,65,29,30.31,30.18,4,1,4,0.00
2012-11-23,66,48,33,47,35,27,85,63,43,30.19,29.89,30,5,30,0.00
2012-11-24,45,35,30,30,21,17,65,58,46,30.16,29.95,32,8,32,0.00
2012-11-25,59,40,28,25,19,12,66,45,17,30.14,29.96,27,4,27,0.00
2012-11-26,66,53,47,41,29,19,71,42,27,30.20,30.03,28,4,28,0.00
2012-11-27,50,45,37,46,40,32,97,82,69,30.27,30.13,10,2,10,0.02
2012-11-28,54,42,36,33,27,21,80,56,34,30.40,30.25,19,4,19,0.00
2012-11-29,58,39,26,33,26,21,84,63,36,30.49,30.34,11,1,11,0.00
2012-11-30,63,42,28,39,31,24,86,66,37,30.40,30.27,4,1,4,0.00
2012-12-1,68,47,33,48,38,30,95,73,47,30.44,30.32,5,1,5,0.00
2012-12-2,70,53,38,51,44,36,97,74,49,30.40,30.19,19,3,19,0.00
2012-12-3,77,61,52,59,53,49,96,76,53,30.31,30.22,13,2,13,0.00
2012-12-4,74,58,45,57,50,45,97,77,48,30.32,30.13,16,3,16,0.00
2012-12-5,65,56,43,53,39,27,75,54,28,30.29,30.10,21,5,21,0.00
2012-12-6,50,40,30,34,31,28,93,70,49,30.35,30.22,7,1,7,0.00
2012-12-7,56,46,39,46,39,32,97,78,64,30.22,30.02,5,1,5,0.00
2012-12-8,69,54,40,59,48,38,97,82,59,30.06,29.93,14,3,14,0.00
2012-12-9,69,55,47,57,52,46,97,89,63,30.16,29.99,8,2,8,0.00
2012-12-10,68,56,46,60,54,42,97,94,68,29.99,29.67,23,2,23,0.07
2012-12-11,46,42,35,42,33,26,85,71,59,30.19,29.76,20,5,20,0.00
2012-12-12,44,37,32,33,30,25,85,75,61,30.38,30.22,4,0,4,0.00
2012-12-13,53,36,25,31,25,21,92,68,32,30.46,30.35,4,1,4,0.00
2012-12-14,64,39,24,35,24,19,87,60,21,30.38,30.23,11,1,11,0.00
2012-12-15,61,43,33,39,30,24,84,62,38,30.27,30.09,5,1,5,0.01
2012-12-16,56,43,39,55,42,38,97,96,83,30.10,29.85,16,1,16,0.20
2012-12-17,54,50,45,53,49,44,97,97,91,29.90,29.65,11,1,11,0.08
2012-12-18,55,48,39,49,39,30,97,73,60,29.91,29.65,24,6,24,0.01
2012-12-19,64,50,36,40,36,30,81,59,38,30.17,29.88,29,6,29,0.00
2012-12-20,45,40,37,44,36,33,97,85,69,30.20,29.49,16,2,16,0.53
2012-12-21,46,35,31,45,26,21,97,69,61,29.78,29.48,39,12,39,0.01
2012-12-22,42,35,31,25,22,19,69,59,47,30.10,29.76,38,12,38,0.00
2012-12-23,55,41,27,31,24,16,72,53,34,30.10,29.95,23,5,23,0.00
2012-12-24,41,38,37,38,36,31,97,92,71,30.02,29.88,4,1,4,0.33
2012-12-25,56,47,37,46,40,36,97,78,57,30.15,29.92,21,2,21,0.00
2012-12-26,42,35,33,40,34,32,97,97,88,30.13,29.55,27,1,27,0.85
2012-12-27,41,36,31,37,28,24,88,73,61,30.05,29.60,42,12,42,0.14
2012-12-28,34,34,33,30,30,28,88,84,76,30.06,29.98,4,0,4,0.00
2012-12-29,46,37,33,42,31,24,97,82,66,29.99,29.65,27,5,27,0.07
2012-12-30,42,33,29,25,21,18,70,61,49,30.37,29.97,32,8,32,0.00
2012-12-31,46,35,24,29,22,13,82,61,27,30.35,30.06,20,2,20,0.00
2013-1-1,49,44,40,43,35,20,90,74,36,30.08,29.91,30,6,30,0.00